sensor_id;sensor_type;location;lat;lon;timestamp;P1;durP1;ratioP1;P2;durP2;ratioP2
357;SDS011;167;47.558;7.602;2023-03-19T00:00:26;3.33;;;3.03;;
357;SDS011;167;47.558;7.602;2023-03-19T00:02:52;5.43;;;3.43;;
357;SDS011;167;47.558;7.602;2023-03-19T00:05:18;4.60;;;4.20;;
357;SDS011;167;47.558;7.602;2023-03-19T00:07:44;3.53;;;3.30;;
357;SDS011;167;47.558;7.602;2023-03-19T00:10:10;4.00;;;3.70;;
357;SDS011;167;47.558;7.602;2023-03-19T00:12:37;4.03;;;3.53;;
357;SDS011;167;47.558;7.602;2023-03-19T00:15:03;5.07;;;3.80;;
357;SDS011;167;47.558;7.602;2023-03-19T00:17:29;4.53;;;4.10;;
357;SDS011;167;47.558;7.602;2023-03-19T00:19:55;4.17;;;3.87;;
357;SDS011;167;47.558;7.602;2023-03-19T00:22:21;5.23;;;4.40;;
357;SDS011;167;47.558;7.602;2023-03-19T00:24:47;4.10;;;3.77;;
357;SDS011;167;47.558;7.602;2023-03-19T00:27:13;4.45;;;4.05;;
357;SDS011;167;47.558;7.602;2023-03-19T00:29:39;5.93;;;5.17;;
357;SDS011;167;47.558;7.602;2023-03-19T00:32:05;5.20;;;4.70;;
357;SDS011;167;47.558;7.602;2023-03-19T00:34:31;4.80;;;4.40;;
357;SDS011;167;47.558;7.602;2023-03-19T00:36:57;4.97;;;4.57;;
357;SDS011;167;47.558;7.602;2023-03-19T00:39:23;5.13;;;4.23;;
357;SDS011;167;47.558;7.602;2023-03-19T00:41:49;4.40;;;4.00;;
357;SDS011;167;47.558;7.602;2023-03-19T00:44:18;5.20;;;4.70;;
357;SDS011;167;47.558;7.602;2023-03-19T00:46:44;4.30;;;3.90;;
357;SDS011;167;47.558;7.602;2023-03-19T00:49:10;3.80;;;3.50;;
357;SDS011;167;47.558;7.602;2023-03-19T00:51:36;4.53;;;4.23;;
357;SDS011;167;47.558;7.602;2023-03-19T00:54:07;2.97;;;2.80;;
357;SDS011;167;47.558;7.602;2023-03-19T00:56:33;3.55;;;3.22;;
357;SDS011;167;47.558;7.602;2023-03-19T00:58:59;3.70;;;3.50;;
357;SDS011;167;47.558;7.602;2023-03-19T01:01:25;3.40;;;3.20;;
357;SDS011;167;47.558;7.602;2023-03-19T01:03:51;3.77;;;3.47;;
357;SDS011;167;47.558;7.602;2023-03-19T01:06:17;2.73;;;2.57;;
357;SDS011;167;47.558;7.602;2023-03-19T01:08:43;4.27;;;3.00;;
357;SDS011;167;47.558;7.602;2023-03-19T01:11:10;4.80;;;2.90;;
357;SDS011;167;47.558;7.602;2023-03-19T01:13:38;2.70;;;2.50;;
357;SDS011;167;47.558;7.602;2023-03-19T01:16:04;2.73;;;2.50;;
357;SDS011;167;47.558;7.602;2023-03-19T01:18:30;3.07;;;2.67;;
357;SDS011;167;47.558;7.602;2023-03-19T01:20:56;3.00;;;2.67;;
357;SDS011;167;47.558;7.602;2023-03-19T01:23:22;2.95;;;2.50;;
357;SDS011;167;47.558;7.602;2023-03-19T01:25:48;2.17;;;1.77;;
357;SDS011;167;47.558;7.602;2023-03-19T01:28:15;2.40;;;2.30;;
357;SDS011;167;47.558;7.602;2023-03-19T01:30:41;2.57;;;2.37;;
357;SDS011;167;47.558;7.602;2023-03-19T01:33:07;3.13;;;2.83;;
357;SDS011;167;47.558;7.602;2023-03-19T01:35:33;2.50;;;2.30;;
357;SDS011;167;47.558;7.602;2023-03-19T01:37:59;2.50;;;2.30;;
357;SDS011;167;47.558;7.602;2023-03-19T01:40:25;3.10;;;2.80;;
357;SDS011;167;47.558;7.602;2023-03-19T01:45:28;3.27;;;2.90;;
357;SDS011;167;47.558;7.602;2023-03-19T01:47:54;2.83;;;2.60;;
357;SDS011;167;47.558;7.602;2023-03-19T01:50:54;3.60;;;3.30;;
357;SDS011;167;47.558;7.602;2023-03-19T01:53:14;3.40;;;3.20;;
357;SDS011;167;47.558;7.602;2023-03-19T01:55:41;3.70;;;3.50;;
357;SDS011;167;47.558;7.602;2023-03-19T01:58:07;4.33;;;3.93;;
357;SDS011;167;47.558;7.602;2023-03-19T02:00:34;4.70;;;4.30;;
357;SDS011;167;47.558;7.602;2023-03-19T02:03:03;4.83;;;4.43;;
357;SDS011;167;47.558;7.602;2023-03-19T02:05:29;3.80;;;3.60;;
357;SDS011;167;47.558;7.602;2023-03-19T02:07:57;4.50;;;4.10;;
357;SDS011;167;47.558;7.602;2023-03-19T02:10:24;4.17;;;3.83;;
357;SDS011;167;47.558;7.602;2023-03-19T02:12:51;3.77;;;3.57;;
357;SDS011;167;47.558;7.602;2023-03-19T02:15:17;3.23;;;3.03;;
357;SDS011;167;47.558;7.602;2023-03-19T02:17:43;3.50;;;3.10;;
357;SDS011;167;47.558;7.602;2023-03-19T02:22:37;4.50;;;3.43;;
357;SDS011;167;47.558;7.602;2023-03-19T02:25:10;3.23;;;3.00;;
357;SDS011;167;47.558;7.602;2023-03-19T02:27:37;3.60;;;3.30;;
357;SDS011;167;47.558;7.602;2023-03-19T02:30:17;3.77;;;3.47;;
357;SDS011;167;47.558;7.602;2023-03-19T02:32:43;2.60;;;2.40;;
357;SDS011;167;47.558;7.602;2023-03-19T02:35:09;2.40;;;2.30;;
357;SDS011;167;47.558;7.602;2023-03-19T02:37:35;3.40;;;3.10;;
357;SDS011;167;47.558;7.602;2023-03-19T02:40:11;5.53;;;2.83;;
357;SDS011;167;47.558;7.602;2023-03-19T02:42:39;2.80;;;2.60;;
357;SDS011;167;47.558;7.602;2023-03-19T02:45:05;3.10;;;2.87;;
357;SDS011;167;47.558;7.602;2023-03-19T02:47:32;2.93;;;2.60;;
357;SDS011;167;47.558;7.602;2023-03-19T02:49:58;4.27;;;3.07;;
357;SDS011;167;47.558;7.602;2023-03-19T02:52:24;2.60;;;2.40;;
357;SDS011;167;47.558;7.602;2023-03-19T02:54:50;2.97;;;2.77;;
357;SDS011;167;47.558;7.602;2023-03-19T02:57:16;2.80;;;2.70;;
357;SDS011;167;47.558;7.602;2023-03-19T02:59:42;3.43;;;2.90;;
357;SDS011;167;47.558;7.602;2023-03-19T03:02:08;6.00;;;3.00;;
357;SDS011;167;47.558;7.602;2023-03-19T03:04:34;3.60;;;3.40;;
357;SDS011;167;47.558;7.602;2023-03-19T03:07:04;3.40;;;3.20;;
357;SDS011;167;47.558;7.602;2023-03-19T03:09:30;3.70;;;3.40;;
357;SDS011;167;47.558;7.602;2023-03-19T03:11:56;4.50;;;3.17;;
357;SDS011;167;47.558;7.602;2023-03-19T03:14:22;5.37;;;3.07;;
357;SDS011;167;47.558;7.602;2023-03-19T03:16:48;3.20;;;3.00;;
357;SDS011;167;47.558;7.602;2023-03-19T03:19:14;3.53;;;3.23;;
357;SDS011;167;47.558;7.602;2023-03-19T03:21:40;4.23;;;3.23;;
357;SDS011;167;47.558;7.602;2023-03-19T03:24:07;6.93;;;4.20;;
357;SDS011;167;47.558;7.602;2023-03-19T03:26:33;4.10;;;3.70;;
357;SDS011;167;47.558;7.602;2023-03-19T03:29:02;3.50;;;3.20;;
357;SDS011;167;47.558;7.602;2023-03-19T03:31:28;4.17;;;3.77;;
357;SDS011;167;47.558;7.602;2023-03-19T03:33:54;4.20;;;3.55;;
357;SDS011;167;47.558;7.602;2023-03-19T03:36:20;3.37;;;3.17;;
357;SDS011;167;47.558;7.602;2023-03-19T03:38:47;5.37;;;3.80;;
357;SDS011;167;47.558;7.602;2023-03-19T03:41:13;3.57;;;3.27;;
357;SDS011;167;47.558;7.602;2023-03-19T03:43:39;4.78;;;3.67;;
357;SDS011;167;47.558;7.602;2023-03-19T03:46:05;4.47;;;4.07;;
357;SDS011;167;47.558;7.602;2023-03-19T03:48:32;4.40;;;4.00;;
357;SDS011;167;47.558;7.602;2023-03-19T03:50:58;3.87;;;3.57;;
357;SDS011;167;47.558;7.602;2023-03-19T03:53:24;3.63;;;3.43;;
357;SDS011;167;47.558;7.602;2023-03-19T03:55:51;3.97;;;3.40;;
357;SDS011;167;47.558;7.602;2023-03-19T03:58:17;4.63;;;4.00;;
357;SDS011;167;47.558;7.602;2023-03-19T04:00:43;3.67;;;3.40;;
357;SDS011;167;47.558;7.602;2023-03-19T04:03:10;4.17;;;3.77;;
357;SDS011;167;47.558;7.602;2023-03-19T04:05:36;4.20;;;3.90;;
357;SDS011;167;47.558;7.602;2023-03-19T04:08:02;4.40;;;3.47;;
357;SDS011;167;47.558;7.602;2023-03-19T04:10:29;4.43;;;3.87;;
357;SDS011;167;47.558;7.602;2023-03-19T04:12:55;3.97;;;3.67;;
357;SDS011;167;47.558;7.602;2023-03-19T04:15:21;3.37;;;3.13;;
357;SDS011;167;47.558;7.602;2023-03-19T04:17:47;3.00;;;2.80;;
357;SDS011;167;47.558;7.602;2023-03-19T04:20:14;4.17;;;3.77;;
357;SDS011;167;47.558;7.602;2023-03-19T04:22:42;4.07;;;3.30;;
357;SDS011;167;47.558;7.602;2023-03-19T04:25:08;4.70;;;3.73;;
357;SDS011;167;47.558;7.602;2023-03-19T04:27:34;4.33;;;3.00;;
357;SDS011;167;47.558;7.602;2023-03-19T04:30:00;5.33;;;3.57;;
357;SDS011;167;47.558;7.602;2023-03-19T04:32:26;3.30;;;3.03;;
357;SDS011;167;47.558;7.602;2023-03-19T04:34:52;4.93;;;3.70;;
357;SDS011;167;47.558;7.602;2023-03-19T04:37:18;3.42;;;3.22;;
357;SDS011;167;47.558;7.602;2023-03-19T04:39:44;3.60;;;3.20;;
357;SDS011;167;47.558;7.602;2023-03-19T04:42:10;3.30;;;3.00;;
357;SDS011;167;47.558;7.602;2023-03-19T04:44:37;3.37;;;3.03;;
357;SDS011;167;47.558;7.602;2023-03-19T04:47:03;3.33;;;3.03;;
357;SDS011;167;47.558;7.602;2023-03-19T04:49:29;3.07;;;2.87;;
357;SDS011;167;47.558;7.602;2023-03-19T04:51:55;2.90;;;2.70;;
357;SDS011;167;47.558;7.602;2023-03-19T04:54:22;2.73;;;2.57;;
357;SDS011;167;47.558;7.602;2023-03-19T04:56:48;2.90;;;2.70;;
357;SDS011;167;47.558;7.602;2023-03-19T04:59:14;3.17;;;2.90;;
357;SDS011;167;47.558;7.602;2023-03-19T05:01:41;2.83;;;2.63;;
357;SDS011;167;47.558;7.602;2023-03-19T05:04:07;3.60;;;3.30;;
357;SDS011;167;47.558;7.602;2023-03-19T05:06:33;4.00;;;2.90;;
357;SDS011;167;47.558;7.602;2023-03-19T05:09:00;3.80;;;3.53;;
357;SDS011;167;47.558;7.602;2023-03-19T05:11:26;3.20;;;2.90;;
357;SDS011;167;47.558;7.602;2023-03-19T05:13:52;4.27;;;3.90;;
357;SDS011;167;47.558;7.602;2023-03-19T05:16:18;4.40;;;3.70;;
357;SDS011;167;47.558;7.602;2023-03-19T05:18:44;4.00;;;3.70;;
357;SDS011;167;47.558;7.602;2023-03-19T05:21:10;5.33;;;4.43;;
357;SDS011;167;47.558;7.602;2023-03-19T05:23:36;5.80;;;5.33;;
357;SDS011;167;47.558;7.602;2023-03-19T05:26:03;6.00;;;5.40;;
357;SDS011;167;47.558;7.602;2023-03-19T05:28:30;4.77;;;4.47;;
357;SDS011;167;47.558;7.602;2023-03-19T05:30:56;8.00;;;5.80;;
357;SDS011;167;47.558;7.602;2023-03-19T05:33:22;5.13;;;4.70;;
357;SDS011;167;47.558;7.602;2023-03-19T05:35:48;5.57;;;4.97;;
357;SDS011;167;47.558;7.602;2023-03-19T05:38:15;5.63;;;5.23;;
357;SDS011;167;47.558;7.602;2023-03-19T05:40:41;5.17;;;4.77;;
357;SDS011;167;47.558;7.602;2023-03-19T05:43:07;3.80;;;3.60;;
357;SDS011;167;47.558;7.602;2023-03-19T05:45:34;4.60;;;4.23;;
357;SDS011;167;47.558;7.602;2023-03-19T05:48:01;4.53;;;4.17;;
357;SDS011;167;47.558;7.602;2023-03-19T05:50:27;4.20;;;3.90;;
357;SDS011;167;47.558;7.602;2023-03-19T05:52:53;4.97;;;4.57;;
357;SDS011;167;47.558;7.602;2023-03-19T05:55:19;3.97;;;3.73;;
357;SDS011;167;47.558;7.602;2023-03-19T05:57:45;6.03;;;4.60;;
357;SDS011;167;47.558;7.602;2023-03-19T06:00:12;4.90;;;4.50;;
357;SDS011;167;47.558;7.602;2023-03-19T06:02:38;4.67;;;4.37;;
357;SDS011;167;47.558;7.602;2023-03-19T06:05:04;4.97;;;4.47;;
357;SDS011;167;47.558;7.602;2023-03-19T06:07:31;4.53;;;4.23;;
357;SDS011;167;47.558;7.602;2023-03-19T06:09:57;4.30;;;4.10;;
357;SDS011;167;47.558;7.602;2023-03-19T06:12:23;4.77;;;4.33;;
357;SDS011;167;47.558;7.602;2023-03-19T06:14:49;4.07;;;3.77;;
357;SDS011;167;47.558;7.602;2023-03-19T06:17:15;3.77;;;3.47;;
357;SDS011;167;47.558;7.602;2023-03-19T06:19:41;3.43;;;3.13;;
357;SDS011;167;47.558;7.602;2023-03-19T06:22:07;3.53;;;3.23;;
357;SDS011;167;47.558;7.602;2023-03-19T06:24:33;4.17;;;3.77;;
357;SDS011;167;47.558;7.602;2023-03-19T06:26:59;4.23;;;3.90;;
357;SDS011;167;47.558;7.602;2023-03-19T06:29:25;4.60;;;3.97;;
357;SDS011;167;47.558;7.602;2023-03-19T06:31:51;7.63;;;5.00;;
357;SDS011;167;47.558;7.602;2023-03-19T06:34:17;4.60;;;4.10;;
357;SDS011;167;47.558;7.602;2023-03-19T06:36:43;4.07;;;3.78;;
357;SDS011;167;47.558;7.602;2023-03-19T06:39:09;4.30;;;4.00;;
357;SDS011;167;47.558;7.602;2023-03-19T06:41:35;4.50;;;4.10;;
357;SDS011;167;47.558;7.602;2023-03-19T06:44:02;8.30;;;4.00;;
357;SDS011;167;47.558;7.602;2023-03-19T06:46:28;4.93;;;3.63;;
357;SDS011;167;47.558;7.602;2023-03-19T06:48:54;4.00;;;3.63;;
357;SDS011;167;47.558;7.602;2023-03-19T06:51:20;6.37;;;3.70;;
357;SDS011;167;47.558;7.602;2023-03-19T06:53:46;7.23;;;4.60;;
357;SDS011;167;47.558;7.602;2023-03-19T06:56:12;6.10;;;4.67;;
357;SDS011;167;47.558;7.602;2023-03-19T06:58:38;7.07;;;4.50;;
357;SDS011;167;47.558;7.602;2023-03-19T07:01:04;5.03;;;3.73;;
357;SDS011;167;47.558;7.602;2023-03-19T07:03:30;4.20;;;3.90;;
357;SDS011;167;47.558;7.602;2023-03-19T07:05:56;4.20;;;3.80;;
357;SDS011;167;47.558;7.602;2023-03-19T07:08:22;4.07;;;3.77;;
357;SDS011;167;47.558;7.602;2023-03-19T07:10:53;6.47;;;3.93;;
357;SDS011;167;47.558;7.602;2023-03-19T07:13:19;4.73;;;3.80;;
357;SDS011;167;47.558;7.602;2023-03-19T07:15:45;4.63;;;3.90;;
357;SDS011;167;47.558;7.602;2023-03-19T07:18:11;5.80;;;4.17;;
357;SDS011;167;47.558;7.602;2023-03-19T07:20:37;4.05;;;3.72;;
357;SDS011;167;47.558;7.602;2023-03-19T07:23:03;4.60;;;4.20;;
357;SDS011;167;47.558;7.602;2023-03-19T07:25:29;4.30;;;3.92;;
357;SDS011;167;47.558;7.602;2023-03-19T07:27:55;9.47;;;5.30;;
357;SDS011;167;47.558;7.602;2023-03-19T07:30:21;4.93;;;4.50;;
357;SDS011;167;47.558;7.602;2023-03-19T07:32:48;4.82;;;4.40;;
357;SDS011;167;47.558;7.602;2023-03-19T07:35:14;3.95;;;3.63;;
357;SDS011;167;47.558;7.602;2023-03-19T07:37:40;4.25;;;4.05;;
357;SDS011;167;47.558;7.602;2023-03-19T07:40:06;5.00;;;4.47;;
357;SDS011;167;47.558;7.602;2023-03-19T07:42:33;5.50;;;4.93;;
357;SDS011;167;47.558;7.602;2023-03-19T07:45:00;4.67;;;4.33;;
357;SDS011;167;47.558;7.602;2023-03-19T07:47:26;4.27;;;4.03;;
357;SDS011;167;47.558;7.602;2023-03-19T07:49:52;4.40;;;4.00;;
357;SDS011;167;47.558;7.602;2023-03-19T07:52:18;5.47;;;4.90;;
357;SDS011;167;47.558;7.602;2023-03-19T07:54:44;5.80;;;4.83;;
357;SDS011;167;47.558;7.602;2023-03-19T07:57:10;3.80;;;3.60;;
357;SDS011;167;47.558;7.602;2023-03-19T07:59:37;4.13;;;3.83;;
357;SDS011;167;47.558;7.602;2023-03-19T08:02:03;4.70;;;4.30;;
357;SDS011;167;47.558;7.602;2023-03-19T08:04:28;4.43;;;4.13;;
357;SDS011;167;47.558;7.602;2023-03-19T08:06:55;4.30;;;4.00;;
357;SDS011;167;47.558;7.602;2023-03-19T08:09:21;3.90;;;3.60;;
357;SDS011;167;47.558;7.602;2023-03-19T08:11:47;4.40;;;4.00;;
357;SDS011;167;47.558;7.602;2023-03-19T08:14:13;4.63;;;4.20;;
357;SDS011;167;47.558;7.602;2023-03-19T08:16:43;4.93;;;4.40;;
357;SDS011;167;47.558;7.602;2023-03-19T08:19:09;3.67;;;3.47;;
357;SDS011;167;47.558;7.602;2023-03-19T08:21:35;4.07;;;3.67;;
357;SDS011;167;47.558;7.602;2023-03-19T08:24:01;4.30;;;3.90;;
357;SDS011;167;47.558;7.602;2023-03-19T08:26:27;4.83;;;3.77;;
357;SDS011;167;47.558;7.602;2023-03-19T08:28:53;4.10;;;3.77;;
357;SDS011;167;47.558;7.602;2023-03-19T08:31:19;4.87;;;4.57;;
357;SDS011;167;47.558;7.602;2023-03-19T08:33:45;3.43;;;3.07;;
357;SDS011;167;47.558;7.602;2023-03-19T08:36:12;4.33;;;4.03;;
357;SDS011;167;47.558;7.602;2023-03-19T08:38:38;3.50;;;3.20;;
357;SDS011;167;47.558;7.602;2023-03-19T08:41:04;4.40;;;4.10;;
357;SDS011;167;47.558;7.602;2023-03-19T08:43:32;4.40;;;4.00;;
357;SDS011;167;47.558;7.602;2023-03-19T08:45:58;3.97;;;3.67;;
357;SDS011;167;47.558;7.602;2023-03-19T08:48:25;3.80;;;3.55;;
357;SDS011;167;47.558;7.602;2023-03-19T08:50:55;3.90;;;3.70;;
357;SDS011;167;47.558;7.602;2023-03-19T08:53:21;4.00;;;3.70;;
357;SDS011;167;47.558;7.602;2023-03-19T08:55:54;3.83;;;3.53;;
357;SDS011;167;47.558;7.602;2023-03-19T08:58:20;3.57;;;3.37;;
357;SDS011;167;47.558;7.602;2023-03-19T09:00:47;4.40;;;3.20;;
357;SDS011;167;47.558;7.602;2023-03-19T09:03:13;4.27;;;3.27;;
357;SDS011;167;47.558;7.602;2023-03-19T09:05:40;3.57;;;3.23;;
357;SDS011;167;47.558;7.602;2023-03-19T09:08:05;3.40;;;3.20;;
357;SDS011;167;47.558;7.602;2023-03-19T09:10:32;3.60;;;3.40;;
357;SDS011;167;47.558;7.602;2023-03-19T09:12:57;3.05;;;2.83;;
357;SDS011;167;47.558;7.602;2023-03-19T09:15:24;3.30;;;3.10;;
357;SDS011;167;47.558;7.602;2023-03-19T09:17:50;3.57;;;3.27;;
357;SDS011;167;47.558;7.602;2023-03-19T09:20:16;2.92;;;2.83;;
357;SDS011;167;47.558;7.602;2023-03-19T09:22:42;2.80;;;2.70;;
357;SDS011;167;47.558;7.602;2023-03-19T09:25:08;2.88;;;2.78;;
357;SDS011;167;47.558;7.602;2023-03-19T09:27:34;3.80;;;3.50;;
357;SDS011;167;47.558;7.602;2023-03-19T09:30:00;3.43;;;2.73;;
357;SDS011;167;47.558;7.602;2023-03-19T09:32:26;3.40;;;3.03;;
357;SDS011;167;47.558;7.602;2023-03-19T09:34:52;4.40;;;3.10;;
357;SDS011;167;47.558;7.602;2023-03-19T09:37:18;4.33;;;2.87;;
357;SDS011;167;47.558;7.602;2023-03-19T09:39:44;3.63;;;3.28;;
357;SDS011;167;47.558;7.602;2023-03-19T09:42:29;2.67;;;2.57;;
357;SDS011;167;47.558;7.602;2023-03-19T09:44:56;3.43;;;2.57;;
357;SDS011;167;47.558;7.602;2023-03-19T09:47:27;3.50;;;3.20;;
357;SDS011;167;47.558;7.602;2023-03-19T09:49:56;3.10;;;2.80;;
357;SDS011;167;47.558;7.602;2023-03-19T09:52:30;4.97;;;2.67;;
357;SDS011;167;47.558;7.602;2023-03-19T09:55:04;3.33;;;3.03;;
357;SDS011;167;47.558;7.602;2023-03-19T09:57:32;2.92;;;2.75;;
357;SDS011;167;47.558;7.602;2023-03-19T09:59:59;2.50;;;2.30;;
357;SDS011;167;47.558;7.602;2023-03-19T10:02:39;4.30;;;2.40;;
357;SDS011;167;47.558;7.602;2023-03-19T10:05:08;2.00;;;1.90;;
357;SDS011;167;47.558;7.602;2023-03-19T10:08:36;2.30;;;2.20;;
357;SDS011;167;47.558;7.602;2023-03-19T10:13:13;2.20;;;2.10;;
357;SDS011;167;47.558;7.602;2023-03-19T10:15:43;2.55;;;2.40;;
357;SDS011;167;47.558;7.602;2023-03-19T10:18:16;2.63;;;2.42;;
357;SDS011;167;47.558;7.602;2023-03-19T10:20:56;2.40;;;2.20;;
357;SDS011;167;47.558;7.602;2023-03-19T10:26:10;2.10;;;1.90;;
357;SDS011;167;47.558;7.602;2023-03-19T10:28:37;2.40;;;2.20;;
357;SDS011;167;47.558;7.602;2023-03-19T10:33:51;2.83;;;1.90;;
357;SDS011;167;47.558;7.602;2023-03-19T10:36:18;3.07;;;2.77;;
357;SDS011;167;47.558;7.602;2023-03-19T10:38:45;2.57;;;2.37;;
357;SDS011;167;47.558;7.602;2023-03-19T10:41:23;2.53;;;2.33;;
357;SDS011;167;47.558;7.602;2023-03-19T10:43:57;2.13;;;2.03;;
357;SDS011;167;47.558;7.602;2023-03-19T10:46:24;2.27;;;2.03;;
357;SDS011;167;47.558;7.602;2023-03-19T10:48:50;1.90;;;1.80;;
357;SDS011;167;47.558;7.602;2023-03-19T10:51:20;2.63;;;2.03;;
357;SDS011;167;47.558;7.602;2023-03-19T10:53:46;3.93;;;1.97;;
357;SDS011;167;47.558;7.602;2023-03-19T10:58:41;1.97;;;1.80;;
357;SDS011;167;47.558;7.602;2023-03-19T11:01:20;1.83;;;1.73;;
357;SDS011;167;47.558;7.602;2023-03-19T11:03:50;1.90;;;1.80;;
357;SDS011;167;47.558;7.602;2023-03-19T11:06:32;1.80;;;1.70;;
357;SDS011;167;47.558;7.602;2023-03-19T11:11:35;2.40;;;2.30;;
357;SDS011;167;47.558;7.602;2023-03-19T11:14:06;1.90;;;1.70;;
357;SDS011;167;47.558;7.602;2023-03-19T11:16:45;3.07;;;2.00;;
357;SDS011;167;47.558;7.602;2023-03-19T11:22:07;2.50;;;1.90;;
357;SDS011;167;47.558;7.602;2023-03-19T11:24:40;2.37;;;1.60;;
357;SDS011;167;47.558;7.602;2023-03-19T11:27:07;1.77;;;1.67;;
357;SDS011;167;47.558;7.602;2023-03-19T11:29:39;2.00;;;1.90;;
357;SDS011;167;47.558;7.602;2023-03-19T11:37:10;2.10;;;1.85;;
357;SDS011;167;47.558;7.602;2023-03-19T11:39:55;2.20;;;1.60;;
357;SDS011;167;47.558;7.602;2023-03-19T11:45:16;1.83;;;1.73;;
357;SDS011;167;47.558;7.602;2023-03-19T11:53:30;3.40;;;1.70;;
357;SDS011;167;47.558;7.602;2023-03-19T11:56:18;2.30;;;2.10;;
357;SDS011;167;47.558;7.602;2023-03-19T12:09:28;2.15;;;1.98;;
357;SDS011;167;47.558;7.602;2023-03-19T12:14:49;4.80;;;1.77;;
357;SDS011;167;47.558;7.602;2023-03-19T12:17:55;2.00;;;1.90;;
357;SDS011;167;47.558;7.602;2023-03-19T12:35:32;2.15;;;2.00;;
357;SDS011;167;47.558;7.602;2023-03-19T12:38:03;2.45;;;2.25;;
357;SDS011;167;47.558;7.602;2023-03-19T12:40:38;1.87;;;1.77;;
357;SDS011;167;47.558;7.602;2023-03-19T12:45:55;2.10;;;2.00;;
357;SDS011;167;47.558;7.602;2023-03-19T12:48:30;2.60;;;2.50;;
357;SDS011;167;47.558;7.602;2023-03-19T12:51:04;2.60;;;2.40;;
357;SDS011;167;47.558;7.602;2023-03-19T12:55:57;2.73;;;2.30;;
357;SDS011;167;47.558;7.602;2023-03-19T12:58:37;1.97;;;1.87;;
357;SDS011;167;47.558;7.602;2023-03-19T13:01:08;2.30;;;2.03;;
357;SDS011;167;47.558;7.602;2023-03-19T13:03:42;2.10;;;1.90;;
357;SDS011;167;47.558;7.602;2023-03-19T13:06:14;2.67;;;2.57;;
357;SDS011;167;47.558;7.602;2023-03-19T13:11:12;2.07;;;1.97;;
357;SDS011;167;47.558;7.602;2023-03-19T13:13:41;1.50;;;1.43;;
357;SDS011;167;47.558;7.602;2023-03-19T13:18:55;2.03;;;1.80;;
357;SDS011;167;47.558;7.602;2023-03-19T13:21:27;1.70;;;1.60;;
357;SDS011;167;47.558;7.602;2023-03-19T13:23:59;1.80;;;1.70;;
357;SDS011;167;47.558;7.602;2023-03-19T13:26:26;1.90;;;1.80;;
357;SDS011;167;47.558;7.602;2023-03-19T13:28:54;1.93;;;1.80;;
357;SDS011;167;47.558;7.602;2023-03-19T13:31:20;2.70;;;1.90;;
357;SDS011;167;47.558;7.602;2023-03-19T13:34:01;2.30;;;2.10;;
357;SDS011;167;47.558;7.602;2023-03-19T13:36:28;3.67;;;2.00;;
357;SDS011;167;47.558;7.602;2023-03-19T13:38:58;2.70;;;2.50;;
357;SDS011;167;47.558;7.602;2023-03-19T13:43:57;2.10;;;1.93;;
357;SDS011;167;47.558;7.602;2023-03-19T13:46:37;2.37;;;2.17;;
357;SDS011;167;47.558;7.602;2023-03-19T13:49:08;2.20;;;2.00;;
357;SDS011;167;47.558;7.602;2023-03-19T13:51:46;1.97;;;1.87;;
357;SDS011;167;47.558;7.602;2023-03-19T13:54:19;2.40;;;2.20;;
357;SDS011;167;47.558;7.602;2023-03-19T13:59:23;2.80;;;2.10;;
357;SDS011;167;47.558;7.602;2023-03-19T14:01:50;2.17;;;2.05;;
357;SDS011;167;47.558;7.602;2023-03-19T14:06:52;2.93;;;2.40;;
357;SDS011;167;47.558;7.602;2023-03-19T14:14:53;0.73;;;0.60;;
357;SDS011;167;47.558;7.602;2023-03-19T14:19:49;0.63;;;0.63;;
357;SDS011;167;47.558;7.602;2023-03-19T14:24:42;1.20;;;0.90;;
357;SDS011;167;47.558;7.602;2023-03-19T14:27:28;1.23;;;1.00;;
357;SDS011;167;47.558;7.602;2023-03-19T14:29:56;1.27;;;1.17;;
357;SDS011;167;47.558;7.602;2023-03-19T14:32:26;1.47;;;1.33;;
357;SDS011;167;47.558;7.602;2023-03-19T14:34:53;1.03;;;0.93;;
357;SDS011;167;47.558;7.602;2023-03-19T14:40:25;0.90;;;0.90;;
357;SDS011;167;47.558;7.602;2023-03-19T14:50:26;1.13;;;0.90;;
357;SDS011;167;47.558;7.602;2023-03-19T14:53:13;1.60;;;1.27;;
357;SDS011;167;47.558;7.602;2023-03-19T14:55:41;2.00;;;1.70;;
357;SDS011;167;47.558;7.602;2023-03-19T14:58:10;1.87;;;1.27;;
357;SDS011;167;47.558;7.602;2023-03-19T15:00:38;1.43;;;1.17;;
357;SDS011;167;47.558;7.602;2023-03-19T15:03:06;1.50;;;1.40;;
357;SDS011;167;47.558;7.602;2023-03-19T15:05:38;1.67;;;1.57;;
357;SDS011;167;47.558;7.602;2023-03-19T15:08:05;2.50;;;1.60;;
357;SDS011;167;47.558;7.602;2023-03-19T15:10:37;1.60;;;1.50;;
357;SDS011;167;47.558;7.602;2023-03-19T15:15:38;2.70;;;1.60;;
357;SDS011;167;47.558;7.602;2023-03-19T15:18:09;1.37;;;1.20;;
357;SDS011;167;47.558;7.602;2023-03-19T15:20:41;2.90;;;1.57;;
357;SDS011;167;47.558;7.602;2023-03-19T15:23:09;1.27;;;1.17;;
357;SDS011;167;47.558;7.602;2023-03-19T15:25:43;2.00;;;1.43;;
357;SDS011;167;47.558;7.602;2023-03-19T15:28:10;1.00;;;1.00;;
357;SDS011;167;47.558;7.602;2023-03-19T15:30:43;1.57;;;1.27;;
357;SDS011;167;47.558;7.602;2023-03-19T15:33:20;2.00;;;1.63;;
357;SDS011;167;47.558;7.602;2023-03-19T15:35:54;2.10;;;1.33;;
357;SDS011;167;47.558;7.602;2023-03-19T15:38:22;2.97;;;2.40;;
357;SDS011;167;47.558;7.602;2023-03-19T15:40:50;1.60;;;1.33;;
357;SDS011;167;47.558;7.602;2023-03-19T15:43:17;1.70;;;1.60;;
357;SDS011;167;47.558;7.602;2023-03-19T15:45:46;1.10;;;1.10;;
357;SDS011;167;47.558;7.602;2023-03-19T15:48:24;1.73;;;1.63;;
357;SDS011;167;47.558;7.602;2023-03-19T15:50:54;1.40;;;1.40;;
357;SDS011;167;47.558;7.602;2023-03-19T15:53:21;1.73;;;1.70;;
357;SDS011;167;47.558;7.602;2023-03-19T15:55:49;1.40;;;1.30;;
357;SDS011;167;47.558;7.602;2023-03-19T15:58:17;9.90;;;8.50;;
357;SDS011;167;47.558;7.602;2023-03-19T16:00:45;1.70;;;1.60;;
357;SDS011;167;47.558;7.602;2023-03-19T16:03:15;1.97;;;1.50;;
357;SDS011;167;47.558;7.602;2023-03-19T16:05:41;1.10;;;1.10;;
357;SDS011;167;47.558;7.602;2023-03-19T16:08:12;1.20;;;1.20;;
357;SDS011;167;47.558;7.602;2023-03-19T16:10:40;1.87;;;1.50;;
357;SDS011;167;47.558;7.602;2023-03-19T16:15:55;2.93;;;1.70;;
357;SDS011;167;47.558;7.602;2023-03-19T16:18:24;1.20;;;1.20;;
357;SDS011;167;47.558;7.602;2023-03-19T16:21:11;0.90;;;0.90;;
357;SDS011;167;47.558;7.602;2023-03-19T16:23:41;1.73;;;1.50;;
357;SDS011;167;47.558;7.602;2023-03-19T16:26:21;1.13;;;1.03;;
357;SDS011;167;47.558;7.602;2023-03-19T16:31:28;1.90;;;1.13;;
357;SDS011;167;47.558;7.602;2023-03-19T16:34:00;1.50;;;1.00;;
357;SDS011;167;47.558;7.602;2023-03-19T16:36:27;1.80;;;1.00;;
357;SDS011;167;47.558;7.602;2023-03-19T16:38:58;1.43;;;1.33;;
357;SDS011;167;47.558;7.602;2023-03-19T16:41:37;2.17;;;1.57;;
357;SDS011;167;47.558;7.602;2023-03-19T16:44:10;1.00;;;1.00;;
357;SDS011;167;47.558;7.602;2023-03-19T16:46:37;0.97;;;0.97;;
357;SDS011;167;47.558;7.602;2023-03-19T16:49:03;0.70;;;0.70;;
357;SDS011;167;47.558;7.602;2023-03-19T16:51:29;1.10;;;1.00;;
357;SDS011;167;47.558;7.602;2023-03-19T16:53:55;1.17;;;0.87;;
357;SDS011;167;47.558;7.602;2023-03-19T16:56:21;1.07;;;1.00;;
357;SDS011;167;47.558;7.602;2023-03-19T16:58:47;0.77;;;0.77;;
357;SDS011;167;47.558;7.602;2023-03-19T17:03:40;0.63;;;0.63;;
357;SDS011;167;47.558;7.602;2023-03-19T17:06:08;0.70;;;0.70;;
357;SDS011;167;47.558;7.602;2023-03-19T17:08:34;1.07;;;1.07;;
357;SDS011;167;47.558;7.602;2023-03-19T17:11:00;1.27;;;1.23;;
357;SDS011;167;47.558;7.602;2023-03-19T17:13:26;1.40;;;1.40;;
357;SDS011;167;47.558;7.602;2023-03-19T17:15:54;1.50;;;0.97;;
357;SDS011;167;47.558;7.602;2023-03-19T17:18:22;0.60;;;0.60;;
357;SDS011;167;47.558;7.602;2023-03-19T17:20:58;1.00;;;1.00;;
357;SDS011;167;47.558;7.602;2023-03-19T17:23:26;1.20;;;1.10;;
357;SDS011;167;47.558;7.602;2023-03-19T17:25:52;1.20;;;1.10;;
357;SDS011;167;47.558;7.602;2023-03-19T17:28:19;3.30;;;3.07;;
357;SDS011;167;47.558;7.602;2023-03-19T17:30:45;2.60;;;2.07;;
357;SDS011;167;47.558;7.602;2023-03-19T17:33:19;1.40;;;1.27;;
357;SDS011;167;47.558;7.602;2023-03-19T17:35:46;1.53;;;1.43;;
357;SDS011;167;47.558;7.602;2023-03-19T17:38:12;0.83;;;0.80;;
357;SDS011;167;47.558;7.602;2023-03-19T17:40:39;1.27;;;1.20;;
357;SDS011;167;47.558;7.602;2023-03-19T17:43:06;1.50;;;1.40;;